Tiempo atmosférico en la estación meteorológica de Coll De Nargó, Lleida (603 m.)

Fecha
DESCASC
Temp. máxima en grados centígrados (hora)
DESCASC
Temp. mínima en grados centígrados (hora)
DESCASC
Temp. media en grados centígrados
DESCASC
Racha de viento máxima en m/sg (hora)
DESCASC
Velocidad máxima media en intervalos de 10 minutos(hora)
DESCASC
Precipitaciones diarias en mm
DESCASC
Precipitaciones de 00:00 a 06:00 en mm
DESCASC
Precipitaciones de 06:00 a 12:00 en mm
DESCASC
Precipitaciones de 12:00 a 18:00 en mm
DESCASC
Precipitaciones de 18:00 a 24:00 en mm
DESCASC
17-08-2017 33.8 (16:10) 16.6 (07:10) 25.2 12.5 (15:00) 9.17 (12:20) 0 0 0 0 0
16-08-2017 32.6 (16:00) 15.9 (06:30) 24.2 11.39 (15:40) 8.33 (15:40) 0 0 0 0 0
15-08-2017 33.3 (14:20) 13.5 (00:00) 23.4 14.72 (23:40) 8.89 (23:40) 0.6 0 0 0.4 0.2
14-08-2017 34 (16:10) 14.6 (06:40) 24.3 12.5 (19:50) 7.78 (13:50) 0 0 0 0 0
13-08-2017 31.3 (16:00) 12.8 (00:00) 22 10.83 (15:00) 7.5 (21:30) 0 0 0 0 0
12-08-2017 27.9 (16:40) 11.5 (00:00) 19.7 12.22 (15:30) 8.61 (14:40) 0 0 0 0 0
11-08-2017 23.5 (18:20) 9.8 (00:00) 16.7 11.94 (15:40) 8.33 (15:40) 0 0 0 0 0
10-08-2017 27.5 (15:40) 8 (00:00) 17.8 9.17 (20:20) 6.39 (20:20) 0 0 0 0 0
09-08-2017 20.1 (12:30) 10.7 (00:00) 15.4 11.39 (12:40) 9.17 (11:30) 15.6 0 0 7.4 8.2
08-08-2017 29.8 (17:10) 18.9 (00:00) 24.3 16.11 (11:40) 12.78 (11:40) 0 0 0 0 0
07-08-2017 31.1 (18:00) 19.1 (00:00) 25.1 13.33 (23:50) 9.17 (23:59) 0 0 0 0 0
06-08-2017 30.9 (17:40) 19.2 (00:00) 25.1 10.56 (06:10) 8.33 (06:00) 2.8 0.6 2.2 0 0
05-08-2017 37.8 (15:20) 19.9 (00:00) 28.8 11.39 (15:00) 8.33 (22:50) 0 0 0 0 0
04-08-2017 37.1 (15:20) 18.9 (00:00) 28 13.33 (16:10) 8.89 (15:50) 0 0 0 0 0
03-08-2017 38.3 (16:30) 19.4 (00:00) 28.8 11.94 (14:10) 7.78 (15:40) 0 0 0 0 0
02-08-2017 37.6 (13:50) 17.1 (00:00) 27.3 11.94 (17:50) 8.06 (16:30) 0 0 0 0 0
01-08-2017 30.4 (11:10) 17.5 (00:00) 23.9 15.83 (16:40) 7.78 (11:10) 0 0 0 0 0
31-07-2017 37.7 (16:10) 19.6 (00:00) 28.7 15.28 (19:20) 8.61 (17:40) 0 0 0 0 0
30-07-2017 37.3 (16:10) 18.4 (00:00) 27.8 13.61 (19:50) 8.61 (20:10) 0 0 0 0 0
29-07-2017 35.6 (15:50) 18.2 (00:00) 26.9 12.78 (17:10) 8.89 (00:40) 0 0 0 0 0
28-07-2017 34 (16:20) 17.2 (00:00) 25.6 12.78 (17:10) 9.17 (16:50) 0 0 0 0 0
27-07-2017 34 (17:30) 13.7 (00:00) 23.8 13.61 (17:20) 9.44 (16:00) 0 0 0 0 0
26-07-2017 28.6 (15:40) 12.1 (00:00) 20.4 13.61 (16:40) 10.56 (12:40) 0 0 0 0 0
25-07-2017 29 (16:00) 12.4 (00:00) 20.7 12.78 (14:20) 8.89 (13:50) 0 0 0 0 0
24-07-2017 31.9 (16:30) 15.8 (00:00) 23.8 13.61 (22:20) 9.72 (11:30) 0 0 0 0 0
23-07-2017 30.6 (14:20) 17.8 (00:00) 24.2 13.89 (20:20) 9.44 (15:30) 0 0 0 0 0
22-07-2017 31.8 (17:40) 15.5 (00:00) 23.6 11.94 (15:30) 8.89 (14:10) 0 0 0 0 0
21-07-2017 28 (15:00) 17.6 (00:00) 22.8 9.72 (12:20) 6.67 (01:20) 4.6 0 4.6 0 0
20-07-2017 31.7 (15:00) 16.3 (00:00) 24 12.22 (17:10) 8.06 (21:40) 0 0 0 0 0
19-07-2017 36.5 (14:50) 19.4 (00:00) 27.9 13.33 (15:40) 8.06 (04:00) 0 0 0 0 0

Gráficas

Temp. máximas Temp. mínimas Temp. medias Precipitaciones Rachas de viento máximas Velocidades máximas media en intervalos de 10 minutos

Datos horarios

Fecha y hora oficial Temperatura (ºC) Velocidad del viento (km/h) Dirección del viento Racha (km/h) Dirección de racha Precipitación (mm) Presión (hPa) Tendencia (hPa) Humedad (%)
2017-08-17 23:00:00 25.5 21 Sur 28 Sur 0 -- -- 59
2017-08-17 22:00:00 26.9 18 Sur 31 Sur 0 -- -- 53
2017-08-17 21:00:00 28.6 12 Sur 30 Sur 0 -- -- 33
2017-08-17 20:00:00 29.9 18 Sur 33 Sur 0 -- -- 31
2017-08-17 19:00:00 31.9 23 Sur 36 Sur 0 -- -- 28
2017-08-17 18:00:00 33.2 23 Sur 35 Sur 0 -- -- 27
2017-08-17 17:00:00 33.8 25 Sur 43 Sur 0 -- -- 28
2017-08-17 16:00:00 33.6 29 Sur 44 Sudeste 0 -- -- 30
2017-08-17 15:00:00 33.3 31 Sur 45 Sur 0 -- -- 35
2017-08-17 14:00:00 32 31 Sur 41 Sur 0 -- -- 40
2017-08-17 13:00:00 30.7 30 Sur 43 Sudeste 0 -- -- 46
2017-08-17 12:00:00 28.9 27 Sur 37 Sur 0 -- -- 50
2017-08-17 11:00:00 27.2 22 Sur 28 Sur 0 -- -- 54
2017-08-17 10:00:00 25.1 5 Nordeste 9 Nordeste 0 -- -- 58
2017-08-17 09:00:00 22 3 Norte 6 Noroeste 0 -- -- 71
2017-08-17 08:00:00 16.6 6 Norte 7 Norte 0 -- -- 93
2017-08-17 07:00:00 16.8 5 Nordeste 7 Norte 0 -- -- 93
2017-08-17 06:00:00 17.3 6 Norte 8 Norte 0 -- -- 90
2017-08-17 05:00:00 18.6 2 Sudeste 6 Norte 0 -- -- 85
2017-08-17 04:00:00 19.2 2 Este 5 Nordeste 0 -- -- 81
2017-08-17 03:00:00 20.6 3 Nordeste 11 Sur 0 -- -- 75
2017-08-17 02:00:00 22.1 11 Sur 28 Sur 0 -- -- 73
2017-08-17 01:00:00 22.7 16 Sur 32 Sur 0 -- -- 70
2017-08-17 00:00:00 24.2 24 Sur 34 Sur 0 -- -- 64
2017-08-16 23:00:00 25.3 23 Sur 36 Sur 0 -- -- 57
2017-08-16 22:00:00 25.7 14 Sur 18 Sur 0 -- -- 50
2017-08-16 21:00:00 27.5 8 Sur 26 Sur 0 -- -- 44
2017-08-16 20:00:00 28.9 17 Sur 31 Sur 0 -- -- 42
2017-08-16 19:00:00 30.7 21 Sur 35 Sudeste 0 -- -- 41
2017-08-16 18:00:00 31.3 21 Sur 37 Sudeste 0 -- -- 41
2017-08-16 17:00:00 32.3 27 Sudeste 39 Sur 0 -- -- 39
2017-08-16 16:00:00 32.6 29 Sur 41 Sur 0 -- -- 36
2017-08-16 15:00:00 32.5 28 Sur 37 Sur 0 -- -- 39
2017-08-16 14:00:00 31.7 24 Sur 33 Sudeste 0 -- -- 38
2017-08-16 13:00:00 30.7 20 Sur 31 Sur 0 -- -- 40
2017-08-16 12:00:00 26.8 3 Nordeste 9 Norte 0 -- -- 45
2017-08-16 11:00:00 25.2 8 Nordeste 13 Norte 0 -- -- 50
2017-08-16 10:00:00 21.8 6 Norte 12 Norte 0 -- -- 61
2017-08-16 09:00:00 20.2 4 Nordeste 8 Norte 0 -- -- 66
2017-08-16 08:00:00 17.2 3 Norte 8 Norte 0 -- -- 78
2017-08-16 07:00:00 16.5 3 Norte 8 Norte 0 -- -- 80
2017-08-16 06:00:00 16.2 4 Nordeste 7 Nordeste 0 -- -- 82
2017-08-16 05:00:00 17.7 3 Nordeste 7 Noroeste 0 -- -- 75
2017-08-16 04:00:00 18.5 4 Norte 11 Norte 0 -- -- 70
2017-08-16 03:00:00 19.9 7 Norte 15 Norte 0 -- -- 65
2017-08-16 02:00:00 20.6 3 Nordeste 23 Nordeste 0 -- -- 61
2017-08-16 01:00:00 21.7 11 Norte 39 Nordeste 0 -- -- 57
2017-08-16 00:00:00 22.9 26 Norte 53 Nordeste 0 -- -- 55
2017-08-15 23:00:00 24.5 22 Nordeste 38 Nordeste 0 -- -- 55
2017-08-15 22:00:00 24.5 11 Sur 32 Sudeste 0 -- -- 55
2017-08-15 21:00:00 25.1 21 Sur 35 Sur 0 -- -- 52
2017-08-15 20:00:00 26.9 16 Sur 33 Sudoeste 0 -- -- 48
2017-08-15 19:00:00 28.1 9 Norte 14 Norte 0.2 -- -- 43
2017-08-15 18:00:00 28.3 4 Nordeste 14 Nordeste 0 -- -- 45
2017-08-15 17:00:00 29 3 Norte 13 Norte 0 -- -- 40
2017-08-15 16:00:00 23.5 6 Sudeste 29 Sur 0.4 -- -- 66
2017-08-15 15:00:00 30.1 19 Sudoeste 37 Oeste 0 -- -- 28
2017-08-15 14:00:00 32.9 23 Sur 42 Sur 0 -- -- 24
2017-08-15 13:00:00 32.6 17 Sur 24 Sur 0 -- -- 25
2017-08-15 12:00:00 29.3 4 Nordeste 9 Nordeste 0 -- -- 34
2017-08-15 11:00:00 26 6 Nordeste 10 Norte 0 -- -- 41
2017-08-15 10:00:00 22 6 Norte 11 Nordeste 0 -- -- 51
2017-08-15 09:00:00 19.1 5 Norte 9 Norte 0 -- -- 59
2017-08-15 08:00:00 13.8 5 Norte 8 Norte 0 -- -- 82
2017-08-15 07:00:00 13.6 5 Norte 8 Norte 0 -- -- 84
2017-08-15 06:00:00 14.2 5 Norte 7 Norte 0 -- -- 78
2017-08-15 05:00:00 14.9 5 Norte 8 Norte 0 -- -- 75
2017-08-15 04:00:00 15.2 8 Norte 10 Norte 0 -- -- 74
2017-08-15 03:00:00 16.1 7 Norte 10 Nordeste 0 -- -- 70
2017-08-15 02:00:00 17 5 Nordeste 10 Nordeste 0 -- -- 68
2017-08-15 01:00:00 18.4 4 Nordeste 9 Nordeste 0 -- -- 62
2017-08-15 00:00:00 21 5 Sur 27 Sur 0 -- -- 52
2017-08-14 23:00:00 23.1 23 Sur 28 Sur 0 -- -- 45
2017-08-14 22:00:00 24.9 23 Sur 38 Sudeste 0 -- -- 41
2017-08-14 21:00:00 26.1 18 Sur 44 Sudoeste 0 -- -- 38
2017-08-14 20:00:00 27.9 23 Sudoeste 45 Sudoeste 0 -- -- 33
2017-08-14 19:00:00 31 17 Sudoeste 38 Sur 0 -- -- 27
2017-08-14 18:00:00 32.1 18 Sur 35 Sur 0 -- -- 27
2017-08-14 17:00:00 33.6 18 Sur 31 Sur 0 -- -- 24
2017-08-14 16:00:00 33.8 19 Sur 35 Sur 0 -- -- 21
2017-08-14 15:00:00 33.3 25 Sur 36 Sur 0 -- -- 21
2017-08-14 14:00:00 32.6 24 Sur 36 Sur 0 -- -- 26
2017-08-14 13:00:00 31.3 24 Sur 32 Sur 0 -- -- 34
2017-08-14 12:00:00 30.1 4 Nordeste 13 Sudoeste 0 -- -- 37
2017-08-14 11:00:00 26.9 5 Nordeste 12 Norte 0 -- -- 46
2017-08-14 10:00:00 23.7 7 Nordeste 13 Nordeste 0 -- -- 54
2017-08-14 09:00:00 20.5 5 Norte 9 Norte 0 -- -- 67
2017-08-14 08:00:00 15.4 3 Norte 6 Norte 0 -- -- 88
2017-08-14 07:00:00 14.9 4 Norte 7 Norte 0 -- -- 91
2017-08-14 06:00:00 15.1 4 Norte 8 Norte 0 -- -- 92
2017-08-14 05:00:00 16.4 4 Norte 8 Norte 0 -- -- 83
2017-08-14 04:00:00 16.3 4 Nordeste 7 Nordeste 0 -- -- 87
2017-08-14 03:00:00 17.6 3 Nordeste 6 Nordeste 0 -- -- 79
2017-08-14 02:00:00 19.5 3 Norte 27 Sur 0 -- -- 70
2017-08-14 01:00:00 20.9 19 Sur 32 Sudeste 0 -- -- 66
2017-08-14 00:00:00 21.8 21 Sur 32 Sur 0 -- -- 63
2017-08-13 23:00:00 22.7 21 Sur 30 Sur 0 -- -- 60
2017-08-13 22:00:00 24 22 Sur 36 Sur 0 -- -- 55
2017-08-13 21:00:00 25.9 15 Sur 27 Sudeste 0 -- -- 39
2017-08-13 20:00:00 27.3 14 Sur 27 Sudoeste 0 -- -- 36
2017-08-13 19:00:00 29.2 18 Sur 30 Sur 0 -- -- 31
2017-08-13 18:00:00 30.6 18 Sur 36 Sur 0 -- -- 30
2017-08-13 17:00:00 31.1 23 Sur 35 Sur 0 -- -- 30
2017-08-13 16:00:00 31.3 23 Sur 37 Sur 0 -- -- 31
2017-08-13 15:00:00 30.4 26 Sudeste 39 Sur 0 -- -- 33
2017-08-13 14:00:00 30 23 Sur 38 Sur 0 -- -- 33
2017-08-13 13:00:00 29.7 25 Sudeste 36 Sur 0 -- -- 35
2017-08-13 12:00:00 28.1 16 Sur 24 Sur 0 -- -- 38
2017-08-13 11:00:00 25 3 Nordeste 11 Norte 0 -- -- 44
2017-08-13 10:00:00 22.3 7 Nordeste 10 Nordeste 0 -- -- 51
2017-08-13 09:00:00 18.8 4 Norte 6 Norte 0 -- -- 60
2017-08-13 08:00:00 12.8 4 Norte 7 Norte 0 -- -- 86
2017-08-13 07:00:00 13.1 3 Nordeste 8 Norte 0 -- -- 82
2017-08-13 06:00:00 12.9 7 Norte 10 Norte 0 -- -- 84
2017-08-13 05:00:00 13.5 6 Norte 9 Nordeste 0 -- -- 85
2017-08-13 04:00:00 14.1 7 Nordeste 9 Nordeste 0 -- -- 83
2017-08-13 03:00:00 15.5 4 Norte 5 Nordeste 0 -- -- 77
2017-08-13 02:00:00 17 2 Norte 8 Sur 0 -- -- 67
2017-08-13 01:00:00 18.1 2 Nordeste 7 Sudoeste 0 -- -- 63
2017-08-13 00:00:00 18.6 4 Nordeste 17 Sudoeste 0 -- -- 59
2017-08-12 23:00:00 20.1 3 Sudoeste 15 Sur 0 -- -- 52
2017-08-12 22:00:00 21.8 15 Sur 27 Sur 0 -- -- 47
2017-08-12 21:00:00 23 13 Sur 26 Sudeste 0 -- -- 43
2017-08-12 20:00:00 24.5 22 Sur 32 Sudeste 0 -- -- 37
2017-08-12 19:00:00 26.4 22 Sur 31 Sur 0 -- -- 32
2017-08-12 18:00:00 27.8 22 Sur 37 Sudeste 0 -- -- 30
2017-08-12 17:00:00 27.6 27 Sur 42 Sudeste 0 -- -- 30
2017-08-12 16:00:00 27.6 31 Sur 44 Sur 0 -- -- 35
2017-08-12 15:00:00 27.6 30 Sur 39 Sur 0 -- -- 36
2017-08-12 14:00:00 26.7 26 Sur 35 Sur 0 -- -- 39
2017-08-12 13:00:00 25.5 24 Sur 31 Sur 0 -- -- 44
2017-08-12 12:00:00 25.2 5 Este 13 Nordeste 0 -- -- 35
2017-08-12 11:00:00 21.7 7 Nordeste 14 Nordeste 0 -- -- 40
2017-08-12 10:00:00 19.5 4 Nordeste 12 Nordeste 0 -- -- 43
2017-08-12 09:00:00 17.8 5 Nordeste 13 Nordeste 0 -- -- 51
2017-08-12 08:00:00 11.7 4 Nordeste 10 Este 0 -- -- 74
2017-08-12 07:00:00 11.9 4 Norte 9 Norte 0 -- -- 74
2017-08-12 06:00:00 12.6 2 Norte 5 Nordeste 0 -- -- 80
2017-08-12 05:00:00 12.9 0 Calma 7 Norte 0 -- -- 75
2017-08-12 04:00:00 11.8 2 Norte 5 Norte 0 -- -- 92
2017-08-12 03:00:00 12.4 4 Norte 6 Nordeste 0 -- -- 87
2017-08-12 02:00:00 12.8 4 Nordeste 8 Nordeste 0 -- -- 82
2017-08-12 01:00:00 14.1 5 Nordeste 9 Nordeste 0 -- -- 73
2017-08-12 00:00:00 15.7 5 Este 33 Sudeste 0 -- -- 68
2017-08-11 23:00:00 16 12 Sur 23 Sur 0 -- -- 66
2017-08-11 22:00:00 17.8 8 Sur 14 Sur 0 -- -- 52
2017-08-11 21:00:00 19.1 14 Sur 28 Sur 0 -- -- 51
2017-08-11 20:00:00 20.6 26 Sur 34 Sur 0 -- -- 44
2017-08-11 19:00:00 22.5 24 Sur 39 Sur 0 -- -- 40
2017-08-11 18:00:00 22.3 21 Sudeste 36 Sudeste 0 -- -- 42
2017-08-11 17:00:00 21.7 28 Sudeste 38 Sudeste 0 -- -- 43
2017-08-11 16:00:00 21.7 28 Sur 43 Sudeste 0 -- -- 44
2017-08-11 15:00:00 23.4 27 Sudeste 39 Sur 0 -- -- 41
2017-08-11 14:00:00 20.9 30 Sur 39 Sur 0 -- -- 48
2017-08-11 13:00:00 23.1 28 Sur 38 Sur 0 -- -- 44
2017-08-11 12:00:00 20.5 23 Sur 32 Sur 0 -- -- 52
2017-08-11 11:00:00 16.2 24 Sur 30 Sur 0 -- -- 66
2017-08-11 10:00:00 14.8 24 Sur 30 Sur 0 -- -- 68
2017-08-11 09:00:00 14.5 4 Norte 9 Norte 0 -- -- 69
2017-08-11 08:00:00 9.9 4 Norte 19 Sudoeste 0 -- -- 89
2017-08-11 07:00:00 10.5 18 Sur 30 Sur 0 -- -- 89
2017-08-11 06:00:00 11.1 22 Sur 28 Sur 0 -- -- 87
2017-08-11 05:00:00 11.3 4 Sur 8 Nordeste 0 -- -- 82
2017-08-11 04:00:00 12.4 4 Sur 9 Sur 0 -- -- 80
2017-08-11 03:00:00 13.5 9 Sur 17 Sur 0 -- -- 74
2017-08-11 02:00:00 14.1 2 Sur 8 Nordeste 0 -- -- 60
2017-08-11 01:00:00 15.4 4 Norte 21 Noroeste 0 -- -- 52
2017-08-11 00:00:00 16 10 Norte 22 Norte 0 -- -- 50
2017-08-10 23:00:00 16.4 11 Norte 18 Norte 0 -- -- 50
2017-08-10 22:00:00 18.4 5 Nordeste 18 Sudeste 0 -- -- 47
2017-08-10 21:00:00 20 10 Nordeste 33 Nordeste 0 -- -- 40
2017-08-10 20:00:00 21.3 7 Nordeste 26 Nordeste 0 -- -- 40
2017-08-10 19:00:00 22.4 13 Sudeste 27 Sur 0 -- -- 42
2017-08-10 18:00:00 22.5 16 Sur 29 Sudeste 0 -- -- 43
2017-08-10 17:00:00 24 5 Este 26 Sur 0 -- -- 37
2017-08-10 16:00:00 24.6 10 Este 24 Sudeste 0 -- -- 40
2017-08-10 15:00:00 23.5 5 Noroeste 17 Sudeste 0 -- -- 40
2017-08-10 14:00:00 26 7 Este 18 Sudoeste 0 -- -- 29
2017-08-10 13:00:00 23.4 7 Norte 15 Nordeste 0 -- -- 32
2017-08-10 12:00:00 21.8 5 Nordeste 9 Nordeste 0 -- -- 40
2017-08-10 11:00:00 19 5 Nordeste 12 Nordeste 0 -- -- 54
2017-08-10 10:00:00 16.3 4 Nordeste 15 Nordeste 0 -- -- 64
2017-08-10 09:00:00 13.2 7 Nordeste 13 Norte 0 -- -- 83
2017-08-10 08:00:00 8.1 3 Norte 12 Nordeste 0 -- -- 98
2017-08-10 07:00:00 8.1 5 Norte 9 Norte 0 -- -- 99
2017-08-10 06:00:00 8.5 4 Nordeste 9 Nordeste 0 -- -- 99
2017-08-10 05:00:00 8.6 7 Nordeste 12 Nordeste 0 -- -- 100
2017-08-10 04:00:00 9.3 9 Norte 15 Nordeste 0 -- -- 99
2017-08-10 03:00:00 10 6 Nordeste 10 Nordeste 0 -- -- 99
2017-08-10 02:00:00 11 4 Norte 10 Noroeste 0 -- -- 98
2017-08-10 01:00:00 11.7 2 Nordeste 13 Noroeste 0 -- -- 98
2017-08-10 00:00:00 12.1 4 Norte 19 Norte 0.2 -- -- 98
2017-08-09 23:00:00 12.6 7 Noroeste 17 Noroeste 0.6 -- -- 98
2017-08-09 22:00:00 13.9 5 Norte 11 Norte 1.4 -- -- 99
2017-08-09 21:00:00 14.2 3 Norte 5 Noroeste 1.6 -- -- 99
2017-08-09 20:00:00 14.2 3 Este 8 Nordeste 1.6 -- -- 98
2017-08-09 19:00:00 14.4 3 Noroeste 8 Oeste 2.8 -- -- 97
2017-08-09 18:00:00 14.4 4 Norte 17 Oeste 2.2 -- -- 96
2017-08-09 17:00:00 15 5 Nordeste 8 Nordeste 0.6 -- -- 93
2017-08-09 16:00:00 14.8 5 Norte 14 Sudoeste 1.6 -- -- 95
2017-08-09 15:00:00 14.7 7 Sur 37 Sudeste 2 -- -- 90
2017-08-09 14:00:00 14.8 24 Sur 40 Sur 1 -- -- 88
2017-08-09 13:00:00 19.1 31 Sur 41 Sur 0 -- -- 56
2017-08-09 12:00:00 19.7 32 Sur 41 Sur 0 -- -- 53
2017-08-09 11:00:00 19.7 6 Sudeste 13 Sur 0 -- -- 48
2017-08-09 10:00:00 16.9 8 Nordeste 13 Norte 0 -- -- 56
2017-08-09 09:00:00 15.2 5 Norte 8 Norte 0 -- -- 62
2017-08-09 08:00:00 11.9 2 Norte 8 Norte 0 -- -- 75
2017-08-09 07:00:00 10.9 4 Norte 9 Nordeste 0 -- -- 79
2017-08-09 06:00:00 11.8 3 Norte 6 Nordeste 0 -- -- 75
2017-08-09 05:00:00 12.2 4 Nordeste 6 Este 0 -- -- 76
2017-08-09 04:00:00 13.9 2 Norte 5 Nordeste 0 -- -- 71
2017-08-09 03:00:00 14.7 3 Nordeste 9 Nordeste 0 -- -- 64
2017-08-09 02:00:00 16.4 3 Este 22 Sur 0 -- -- 59
2017-08-09 01:00:00 18.1 15 Sur 31 Sur 0 -- -- 55
2017-08-09 00:00:00 18.9 19 Sur 35 Sur 0 -- -- 51
2017-08-08 23:00:00 20.2 27 Sur 41 Sudeste 0 -- -- 47
2017-08-08 22:00:00 22.2 24 Sur 34 Sur 0 -- -- 40
2017-08-08 21:00:00 23.5 24 Sudeste 37 Sur 0 -- -- 37
2017-08-08 20:00:00 25.2 22 Sur 50 Sudeste 0 -- -- 31
2017-08-08 19:00:00 26.8 25 Sur 48 Sur 0 -- -- 33
2017-08-08 18:00:00 28.2 24 Sur 43 Sur 0 -- -- 31
2017-08-08 17:00:00 29.4 30 Sur 45 Sur 0 -- -- 28
2017-08-08 16:00:00 29.6 21 Sur 41 Sudeste 0 -- -- 38
2017-08-08 15:00:00 28.1 28 Sur 45 Sur 0 -- -- 47
2017-08-08 14:00:00 27.6 35 Sur 50 Sur 0 -- -- 50
2017-08-08 13:00:00 26.5 28 Sur 51 Sur 0 -- -- 55
2017-08-08 12:00:00 24.1 42 Sur 58 Sur 0 -- -- 63
2017-08-08 11:00:00 22.2 43 Sur 53 Sur 0 -- -- 70
2017-08-08 10:00:00 22.8 37 Sur 48 Sur 0 -- -- 73
2017-08-08 09:00:00 20.9 3 Sudoeste 8 Norte 0 -- -- 81
2017-08-08 08:00:00 19.8 4 Nordeste 6 Nordeste 0 -- -- 88
2017-08-08 07:00:00 19.9 2 Este 11 Nordeste 0 -- -- 83
2017-08-08 06:00:00 19.9 3 Nordeste 6 Nordeste 0 -- -- 83
2017-08-08 05:00:00 19.5 5 Norte 10 Nordeste 0 -- -- 86
2017-08-08 04:00:00 20 2 Norte 15 Norte 0 -- -- 79
2017-08-08 03:00:00 21 4 Nordeste 15 Sur 0 -- -- 73
2017-08-08 02:00:00 22.4 11 Sur 25 Sudoeste 0 -- -- 66
2017-08-08 01:00:00 23 17 Sudoeste 44 Sur 0 -- -- 64
2017-08-08 00:00:00 23.5 33 Sur 48 Sudeste 0 -- -- 62
2017-08-07 23:00:00 24.3 19 Sur 34 Sur 0 -- -- 62
2017-08-07 22:00:00 25.2 19 Sudeste 34 Sudeste 0 -- -- 63
2017-08-07 21:00:00 26.3 19 Sur 37 Sur 0 -- -- 59
2017-08-07 20:00:00 28.5 18 Sur 34 Sudeste 0 -- -- 52
2017-08-07 19:00:00 29.5 14 Sur 22 Sur 0 -- -- 44
2017-08-07 18:00:00 31.1 15 Sur 21 Sur 0 -- -- 43
2017-08-07 17:00:00 30.4 12 Sur 23 Sur 0 -- -- 45
2017-08-07 16:00:00 29.5 16 Sur 21 Sur 0 -- -- 49
2017-08-07 15:00:00 27.9 4 Nordeste 12 Nordeste 0 -- -- 55
2017-08-07 14:00:00 25.9 5 Nordeste 14 Noroeste 0 -- -- 61
2017-08-07 13:00:00 25.2 7 Sur 16 Sur 0 -- -- 61
2017-08-07 12:00:00 23.9 13 Sur 29 Sur 0 -- -- 64
2017-08-07 11:00:00 22.9 15 Sur 22 Sur 0 -- -- 68
2017-08-07 10:00:00 23.1 12 Sur 22 Sur 0 -- -- 67
2017-08-07 09:00:00 22.6 14 Sur 27 Sur 0 -- -- 73
2017-08-07 08:00:00 20.2 14 Sur 21 Sur 0 -- -- 87
2017-08-07 07:00:00 19.5 5 Sur 9 Sur 0 -- -- 88
2017-08-07 06:00:00 19.9 3 Sur 7 Sur 0 -- -- 84
2017-08-07 05:00:00 19.5 0 Calma 6 Norte 0 -- -- 83
2017-08-07 04:00:00 19.6 4 Noroeste 8 Nordeste 0 -- -- 83
2017-08-07 03:00:00 20.1 3 Este 11 Nordeste 0 -- -- 80
2017-08-07 02:00:00 21.1 4 Sudeste 19 Sur 0 -- -- 77
2017-08-07 01:00:00 22.2 10 Sur 20 Sur 0 -- -- 74
2017-08-07 00:00:00 23.2 13 Sur 23 Sur 0 -- -- 70
2017-08-06 23:00:00 23.7 12 Sur 18 Sur 0 -- -- 64
2017-08-06 22:00:00 25.1 6 Sudoeste 19 Sur 0 -- -- 58
2017-08-06 21:00:00 25.9 16 Sur 25 Sudeste 0 -- -- 57
2017-08-06 20:00:00 27.8 16 Sudeste 29 Sur 0 -- -- 51
2017-08-06 19:00:00 29.6 22 Sur 33 Sudeste 0 -- -- 46
2017-08-06 18:00:00 30.8 19 Sur 30 Sudeste 0 -- -- 44
2017-08-06 17:00:00 29 16 Sur 27 Sudeste 0 -- -- 48
2017-08-06 16:00:00 28.7 17 Sudeste 28 Sudeste 0 -- -- 50
2017-08-06 15:00:00 28.2 18 Sur 32 Sur 0 -- -- 50
2017-08-06 14:00:00 26.8 21 Sur 31 Sur 0 -- -- 57
2017-08-06 13:00:00 27.3 22 Sur 30 Sur 0 -- -- 59
2017-08-06 12:00:00 24.9 14 Sur 17 Sur 0 -- -- 68
2017-08-06 11:00:00 21.3 10 Sur 14 Sur 0 -- -- 79
2017-08-06 10:00:00 22.2 0 Calma 7 Norte 0 -- -- 77
2017-08-06 09:00:00 20.3 0 Calma 6 Nordeste 0 -- -- 87
2017-08-06 08:00:00 19.6 3 Este 10 Nordeste 0 -- -- 87
2017-08-06 07:00:00 19.5 4 Oeste 38 Sur 2.2 -- -- 93
2017-08-06 06:00:00 20.5 30 Sur 37 Sur 0.4 -- -- 88
2017-08-06 05:00:00 23.1 13 Sur 35 Sur 0.2 -- -- 75
2017-08-06 04:00:00 24.2 18 Sur 30 Sudeste 0 -- -- 64
2017-08-06 03:00:00 24.7 23 Sur 32 Sudeste 0 -- -- 61
2017-08-06 02:00:00 25.4 18 Sur 32 Sudeste 0 -- -- 61
2017-08-06 01:00:00 26 17 Sur 34 Sur 0 -- -- 57
2017-08-06 00:00:00 27.1 21 Sur 33 Sur 0 -- -- 53
2017-08-05 23:00:00 28 23 Sur 39 Sur 0 -- -- 51
2017-08-05 22:00:00 29 17 Sur 35 Sur 0 -- -- 45
2017-08-05 21:00:00 30.6 23 Sur 34 Sur 0 -- -- 43
2017-08-05 20:00:00 32.6 14 Sur 31 Sur 0 -- -- 36
2017-08-05 19:00:00 34.5 19 Sur 37 Sur 0 -- -- 32
2017-08-05 18:00:00 36 21 Sur 36 Sur 0 -- -- 29
2017-08-05 17:00:00 36.4 22 Sur 39 Sur 0 -- -- 27
2017-08-05 16:00:00 36.9 22 Sur 41 Sur 0 -- -- 26
2017-08-05 15:00:00 37.3 27 Sur 41 Sur 0 -- -- 26
2017-08-05 14:00:00 36.6 26 Sur 37 Sudeste 0 -- -- 28
2017-08-05 13:00:00 33.2 23 Sur 35 Sur 0 -- -- 35
2017-08-05 12:00:00 33.8 20 Sur 31 Sudeste 0 -- -- 36
2017-08-05 11:00:00 32.9 4 Sudeste 10 Sudeste 0 -- -- 39
2017-08-05 10:00:00 29.7 4 Nordeste 9 Nordeste 0 -- -- 45
2017-08-05 09:00:00 27.9 5 Nordeste 8 Nordeste 0 -- -- 49
2017-08-05 08:00:00 21.6 2 Nordeste 7 Norte 0 -- -- 67
2017-08-05 07:00:00 20.1 4 Norte 8 Norte 0 -- -- 74
2017-08-05 06:00:00 20.1 4 Norte 6 Norte 0 -- -- 74
2017-08-05 05:00:00 21.6 4 Norte 6 Nordeste 0 -- -- 64
2017-08-05 04:00:00 22.2 4 Norte 5 Norte 0 -- -- 63
2017-08-05 03:00:00 23.1 4 Norte 6 Norte 0 -- -- 59
2017-08-05 02:00:00 24.4 3 Nordeste 7 Nordeste 0 -- -- 54
2017-08-05 01:00:00 26.1 6 Nordeste 13 Sur 0 -- -- 49
2017-08-05 00:00:00 27.9 7 Sur 25 Sur 0 -- -- 45
2017-08-04 23:00:00 29.7 22 Sur 29 Sur 0 -- -- 39
2017-08-04 22:00:00 30.3 19 Sur 30 Sudeste 0 -- -- 37
2017-08-04 21:00:00 31.5 18 Sur 33 Sur 0 -- -- 34
2017-08-04 20:00:00 33.2 18 Sur 38 Sudeste 0 -- -- 32
2017-08-04 19:00:00 35.1 21 Sudeste 43 Sudeste 0 -- -- 30
2017-08-04 18:00:00 35.8 22 Sur 48 Sur 0 -- -- 29
2017-08-04 17:00:00 36.3 30 Sur 48 Sur 0 -- -- 29
2017-08-04 16:00:00 36.8 29 Sur 48 Sudeste 0 -- -- 28
2017-08-04 15:00:00 36.8 30 Sudeste 45 Sur 0 -- -- 29
2017-08-04 14:00:00 36.1 31 Sur 45 Sur 0 -- -- 30
2017-08-04 13:00:00 34.8 30 Sur 42 Sur 0 -- -- 32
2017-08-04 12:00:00 33.5 30 Sur 37 Sur 0 -- -- 33
2017-08-04 11:00:00 32.1 4 Norte 11 Nordeste 0 -- -- 35
2017-08-04 10:00:00 28.9 5 Nordeste 10 Nordeste 0 -- -- 42
2017-08-04 09:00:00 26.2 4 Nordeste 8 Noroeste 0 -- -- 47
2017-08-04 08:00:00 20.8 5 Norte 8 Norte 0 -- -- 64
2017-08-04 07:00:00 19 5 Norte 9 Norte 0 -- -- 71
2017-08-04 06:00:00 19.1 6 Norte 8 Norte 0 -- -- 70
2017-08-04 05:00:00 20 5 Norte 9 Norte 0 -- -- 67
2017-08-04 04:00:00 20.5 5 Norte 7 Nordeste 0 -- -- 64
2017-08-04 03:00:00 22.6 4 Norte 6 Norte 0 -- -- 54
2017-08-04 02:00:00 23.1 5 Norte 6 Norte 0 -- -- 52
2017-08-04 01:00:00 24.7 5 Norte 8 Nordeste 0 -- -- 47
2017-08-04 00:00:00 27.1 4 Sur 22 Sur 0 -- -- 43
2017-08-03 23:00:00 29.3 17 Sur 33 Sur 0 -- -- 38
2017-08-03 22:00:00 30.5 18 Sur 29 Sur 0 -- -- 34
2017-08-03 21:00:00 32.6 15 Sudoeste 28 Sur 0 -- -- 24
2017-08-03 20:00:00 33.9 17 Sudoeste 36 Sudeste 0 -- -- 24
2017-08-03 19:00:00 35.4 18 Sur 32 Sur 0 -- -- 24
2017-08-03 18:00:00 37.2 20 Sur 35 Sur 0 -- -- 21
2017-08-03 17:00:00 37.6 23 Sur 36 Sur 0 -- -- 20
2017-08-03 16:00:00 38 23 Sur 39 Sur 0 -- -- 22
2017-08-03 15:00:00 38 23 Sur 43 Sur 0 -- -- 24
2017-08-03 14:00:00 37.2 23 Sudeste 37 Sur 0 -- -- 23
2017-08-03 13:00:00 36.9 21 Sur 30 Sur 0 -- -- 25
2017-08-03 12:00:00 35.2 4 Nordeste 12 Nordeste 0 -- -- 29
2017-08-03 11:00:00 31.8 5 Nordeste 11 Nordeste 0 -- -- 38
2017-08-03 10:00:00 28.4 6 Nordeste 13 Nordeste 0 -- -- 43
2017-08-03 09:00:00 25.6 4 Norte 8 Nordeste 0 -- -- 51
2017-08-03 08:00:00 21.5 5 Norte 12 Nordeste 0 -- -- 66
2017-08-03 07:00:00 19.6 6 Norte 10 Norte 0 -- -- 72
2017-08-03 06:00:00 19.9 8 Norte 10 Norte 0 -- -- 71
2017-08-03 05:00:00 21.4 7 Norte 10 Norte 0 -- -- 65
2017-08-03 04:00:00 22.4 6 Nordeste 9 Nordeste 0 -- -- 61
2017-08-03 03:00:00 23.4 6 Nordeste 8 Nordeste 0 -- -- 58
2017-08-03 02:00:00 24.7 4 Nordeste 8 Sur 0 -- -- 54
2017-08-03 01:00:00 26.4 5 Sur 18 Sur 0 -- -- 48
2017-08-03 00:00:00 27.7 11 Sur 23 Sudeste 0 -- -- 45
2017-08-02 23:00:00 28.4 17 Sur 30 Sur 0 -- -- 47
2017-08-02 22:00:00 28.6 15 Sur 20 Sur 0 -- -- 40
2017-08-02 21:00:00 30.1 6 Sur 31 Sudoeste 0 -- -- 36
2017-08-02 20:00:00 31.9 15 Sudoeste 34 Sudoeste 0 -- -- 31
2017-08-02 19:00:00 33.7 21 Sudoeste 42 Sudoeste 0 -- -- 28
2017-08-02 18:00:00 35.4 21 Sur 43 Sur 0 -- -- 27
2017-08-02 17:00:00 36.1 22 Sur 43 Sudeste 0 -- -- 29
2017-08-02 16:00:00 37 24 Sur 39 Sudeste 0 -- -- 28
2017-08-02 15:00:00 36.9 23 Sur 38 Sudeste 0 -- -- 28
2017-08-02 14:00:00 36.9 24 Sudeste 36 Sur 0 -- -- 27
2017-08-02 13:00:00 36.7 22 Sur 31 Sur 0 -- -- 27
2017-08-02 12:00:00 33.9 9 Sur 18 Sudeste 0 -- -- 32
2017-08-02 11:00:00 29.5 7 Norte 12 Nordeste 0 -- -- 40
2017-08-02 10:00:00 26.5 7 Nordeste 14 Nordeste 0 -- -- 46
2017-08-02 09:00:00 24.1 6 Nordeste 11 Norte 0 -- -- 54
2017-08-02 08:00:00 19.8 5 Norte 8 Norte 0 -- -- 67
2017-08-02 07:00:00 17.7 5 Norte 12 Norte 0 -- -- 77
2017-08-02 06:00:00 17.7 8 Norte 13 Norte 0 -- -- 74
2017-08-02 05:00:00 17.6 8 Norte 11 Norte 0 -- -- 78
2017-08-02 04:00:00 18.4 7 Nordeste 11 Norte 0 -- -- 74
2017-08-02 03:00:00 20.1 4 Norte 12 Norte 0 -- -- 63
2017-08-02 02:00:00 20.3 5 Nordeste 9 Norte 0 -- -- 67
2017-08-02 01:00:00 21.6 0 Calma 10 Norte 0 -- -- 59
2017-08-02 00:00:00 23.2 4 Nordeste 12 Sur 0 -- -- 52
2017-08-01 23:00:00 25 5 Sur 15 Sur 0 -- -- 46
2017-08-01 22:00:00 26.1 8 Sur 16 Sudoeste 0 -- -- 42
2017-08-01 21:00:00 26.6 8 Sur 11 Sur 0 -- -- 40
2017-08-01 20:00:00 28.4 7 Sur 21 Sudeste 0 -- -- 37
2017-08-01 19:00:00 29.5 10 Sur 26 Sudeste 0 -- -- 37
2017-08-01 18:00:00 29.3 9 Sur 39 Sur 0 -- -- 38
2017-08-01 17:00:00 27.8 24 Sur 57 Sudeste 0 -- -- 42
2017-08-01 16:00:00 29.6 24 Sur 48 Sur 0 -- -- 41
2017-08-01 15:00:00 29.4 16 Sur 37 Sudeste 0 -- -- 45
2017-08-01 14:00:00 27.8 22 Sur 40 Sur 0 -- -- 50
2017-08-01 13:00:00 29.3 22 Sur 38 Sudeste 0 -- -- 48
2017-08-01 12:00:00 30.3 19 Sur 45 Sudeste 0 -- -- 41
2017-08-01 11:00:00 30.1 26 Sur 35 Sur 0 -- -- 38
2017-08-01 10:00:00 28 4 Nordeste 9 Norte 0 -- -- 38
2017-08-01 09:00:00 22.7 8 Norte 10 Norte 0 -- -- 50
2017-08-01 08:00:00 20.6 4 Norte 10 Norte 0 -- -- 54
2017-08-01 07:00:00 17.9 6 Norte 10 Norte 0 -- -- 65
2017-08-01 06:00:00 19.6 5 Norte 9 Noroeste 0 -- -- 53
2017-08-01 05:00:00 18.7 5 Norte 7 Norte 0 -- -- 65
2017-08-01 04:00:00 21.1 0 Calma 6 Norte 0 -- -- 51
2017-08-01 03:00:00 21.4 4 Norte 8 Norte 0 -- -- 53
2017-08-01 02:00:00 23 0 Calma 9 Norte 0 -- -- 49
2017-08-01 01:00:00 23.5 5 Norte 10 Nordeste 0 -- -- 49
2017-08-01 00:00:00 26.3 12 Sudeste 32 Sur 0 -- -- 48
2017-07-31 23:00:00 27.5 8 Sur 28 Sur 0 -- -- 44
2017-07-31 22:00:00 29.2 17 Sur 40 Sur 0 -- -- 37
2017-07-31 21:00:00 31 22 Sur 40 Sur 0 -- -- 29
2017-07-31 20:00:00 32.8 29 Sur 55 Sur 0 -- -- 25
2017-07-31 19:00:00 34.5 24 Sur 46 Sudoeste 0 -- -- 25
2017-07-31 18:00:00 35.7 18 Sur 52 Sudoeste 0 -- -- 25
2017-07-31 17:00:00 36.7 21 Sudoeste 46 Sudoeste 0 -- -- 23
2017-07-31 16:00:00 37.2 14 Sudoeste 48 Oeste 0 -- -- 22
2017-07-31 15:00:00 36.9 18 Sudoeste 51 Sudoeste 0 -- -- 19
2017-07-31 14:00:00 36.9 13 Sur 52 Sudeste 0 -- -- 21
2017-07-31 13:00:00 35.2 13 Sur 46 Sudeste 0 -- -- 23
2017-07-31 12:00:00 34.2 20 Sur 43 Sudeste 0 -- -- 23
2017-07-31 11:00:00 30.8 4 Nordeste 11 Nordeste 0 -- -- 35
2017-07-31 10:00:00 27.8 6 Norte 10 Nordeste 0 -- -- 41
2017-07-31 09:00:00 24.8 3 Norte 9 Norte 0 -- -- 48
2017-07-31 08:00:00 23.1 0 Calma 8 Norte 0 -- -- 51
2017-07-31 07:00:00 20.4 4 Norte 10 Noroeste 0 -- -- 61
2017-07-31 06:00:00 21.1 5 Este 12 Nordeste 0 -- -- 58
2017-07-31 05:00:00 20.6 4 Norte 8 Norte 0 -- -- 67
2017-07-31 04:00:00 21.8 3 Norte 7 Sur 0 -- -- 62
2017-07-31 03:00:00 23.5 4 Sudoeste 17 Sur 0 -- -- 58
2017-07-31 02:00:00 24.2 6 Sudoeste 25 Sur 0 -- -- 57
2017-07-31 01:00:00 25.2 10 Sur 26 Sur 0 -- -- 55
2017-07-31 00:00:00 26.7 19 Sur 37 Sur 0 -- -- 50
2017-07-30 23:00:00 27.5 21 Sudeste 32 Sudeste 0 -- -- 49
2017-07-30 22:00:00 29 16 Sur 40 Sur 0 -- -- 43
2017-07-30 21:00:00 30.4 26 Sur 49 Sur 0 -- -- 40
2017-07-30 20:00:00 32 30 Sudoeste 49 Sudoeste 0 -- -- 37
2017-07-30 19:00:00 35.8 14 Sur 41 Sudeste 0 -- -- 19
2017-07-30 18:00:00 36.6 23 Sur 46 Sur 0 -- -- 20
2017-07-30 17:00:00 36.9 25 Sudeste 45 Sur 0 -- -- 22
2017-07-30 16:00:00 36.7 30 Sur 44 Sur 0 -- -- 24
2017-07-30 15:00:00 36.4 28 Sur 48 Sur 0 -- -- 25
2017-07-30 14:00:00 35.7 25 Sur 36 Sur 0 -- -- 27
2017-07-30 13:00:00 34.5 24 Sur 40 Sur 0 -- -- 28
2017-07-30 12:00:00 32.3 25 Sur 41 Sur 0 -- -- 30
2017-07-30 11:00:00 31.3 4 Nordeste 11 Nordeste 0 -- -- 37
2017-07-30 10:00:00 28.2 5 Nordeste 11 Norte 0 -- -- 45
2017-07-30 09:00:00 25.1 5 Nordeste 7 Norte 0 -- -- 56
2017-07-30 08:00:00 21.6 3 Norte 7 Nordeste 0 -- -- 69
2017-07-30 07:00:00 19.4 4 Norte 9 Nordeste 0 -- -- 76
2017-07-30 06:00:00 18.6 5 Norte 9 Norte 0 -- -- 83
2017-07-30 05:00:00 19.1 6 Norte 8 Norte 0 -- -- 82
2017-07-30 04:00:00 20.9 0 Calma 6 Nordeste 0 -- -- 74
2017-07-30 03:00:00 20.9 6 Norte 9 Nordeste 0 -- -- 74
2017-07-30 02:00:00 21.8 5 Norte 8 Sur 0 -- -- 71
2017-07-30 01:00:00 23.6 2 Norte 7 Norte 0 -- -- 63
2017-07-30 00:00:00 25.4 0 Calma 24 Sudeste 0 -- -- 54
2017-07-29 23:00:00 26.9 16 Sur 32 Sur 0 -- -- 49
2017-07-29 22:00:00 28.5 21 Sur 33 Sudeste 0 -- -- 47
2017-07-29 21:00:00 29.8 16 Sur 35 Sur 0 -- -- 45
2017-07-29 20:00:00 31.7 21 Sur 33 Sudeste 0 -- -- 34
2017-07-29 19:00:00 33.6 19 Sur 36 Sur 0 -- -- 31
2017-07-29 18:00:00 34.4 21 Sur 46 Sur 0 -- -- 31
2017-07-29 17:00:00 35.1 26 Sur 40 Sur 0 -- -- 31
2017-07-29 16:00:00 35.5 23 Sur 39 Sur 0 -- -- 30
2017-07-29 15:00:00 34.5 27 Sur 41 Sudeste 0 -- -- 33
2017-07-29 14:00:00 33.5 24 Sur 42 Sur 0 -- -- 32
2017-07-29 13:00:00 32.2 22 Sur 41 Sur 0 -- -- 34
2017-07-29 12:00:00 30.5 23 Sur 33 Sudeste 0 -- -- 43
2017-07-29 11:00:00 29.1 19 Sur 26 Sur 0 -- -- 50
2017-07-29 10:00:00 27.5 5 Nordeste 9 Nordeste 0 -- -- 51
2017-07-29 09:00:00 25.5 3 Nordeste 6 Nordeste 0 -- -- 57
2017-07-29 08:00:00 21.5 3 Nordeste 5 Nordeste 0 -- -- 75
2017-07-29 07:00:00 18.4 3 Nordeste 7 Nordeste 0 -- -- 88
2017-07-29 06:00:00 19.4 3 Nordeste 8 Norte 0 -- -- 81
2017-07-29 05:00:00 19 5 Nordeste 8 Norte 0 -- -- 85
2017-07-29 04:00:00 19.5 7 Norte 9 Norte 0 -- -- 84
2017-07-29 03:00:00 21.1 4 Nordeste 15 Sur 0 -- -- 76
2017-07-29 02:00:00 22.5 13 Sur 41 Sur 0 -- -- 71
2017-07-29 01:00:00 23.7 27 Sur 40 Sudeste 0 -- -- 68
2017-07-29 00:00:00 24.4 25 Sur 32 Sur 0 -- -- 66
2017-07-28 23:00:00 25.7 21 Sur 35 Sur 0 -- -- 61
2017-07-28 22:00:00 27 23 Sur 38 Sur 0 -- -- 57
2017-07-28 21:00:00 29.3 14 Sur 34 Sudoeste 0 -- -- 42
2017-07-28 20:00:00 30.6 25 Sur 40 Sur 0 -- -- 42
2017-07-28 19:00:00 31.9 28 Sur 41 Sur 0 -- -- 41
2017-07-28 18:00:00 33.3 30 Sur 46 Sur 0 -- -- 38
2017-07-28 17:00:00 33.8 31 Sur 44 Sur 0 -- -- 37
2017-07-28 16:00:00 33.6 30 Sur 42 Sur 0 -- -- 39
2017-07-28 15:00:00 33.4 30 Sur 42 Sur 0 -- -- 37
2017-07-28 14:00:00 32.6 31 Sur 41 Sur 0 -- -- 39
2017-07-28 13:00:00 31.7 30 Sur 40 Sur 0 -- -- 38
2017-07-28 12:00:00 30.3 28 Sur 35 Sur 0 -- -- 43
2017-07-28 11:00:00 28.9 21 Sur 29 Sur 0 -- -- 46
2017-07-28 10:00:00 26.3 4 Nordeste 12 Nordeste 0 -- -- 47
2017-07-28 09:00:00 23.7 7 Norte 9 Norte 0 -- -- 55
2017-07-28 08:00:00 20.5 3 Norte 5 Norte 0 -- -- 68
2017-07-28 07:00:00 17.2 4 Norte 6 Norte 0 -- -- 81
2017-07-28 06:00:00 17.7 4 Norte 9 Norte 0 -- -- 77
2017-07-28 05:00:00 18.3 4 Norte 7 Nordeste 0 -- -- 77
2017-07-28 04:00:00 19.3 4 Nordeste 6 Nordeste 0 -- -- 72
2017-07-28 03:00:00 21.2 0 Calma 9 Nordeste 0 -- -- 64
2017-07-28 02:00:00 22.2 6 Nordeste 20 Sur 0 -- -- 60
2017-07-28 01:00:00 24.3 18 Sur 30 Sudeste 0 -- -- 63
2017-07-28 00:00:00 25.1 18 Sur 34 Sur 0 -- -- 59
2017-07-27 23:00:00 26.8 28 Sur 41 Sur 0 -- -- 47
2017-07-27 22:00:00 27.1 19 Sur 25 Sur 0 -- -- 36
2017-07-27 21:00:00 28.5 16 Sur 32 Sur 0 -- -- 35
2017-07-27 20:00:00 31 23 Sur 35 Sur 0 -- -- 29
2017-07-27 19:00:00 32.6 24 Sur 39 Sur 0 -- -- 27
2017-07-27 18:00:00 33.9 25 Sudeste 49 Sur 0 -- -- 26
2017-07-27 17:00:00 33.6 30 Sur 48 Sur 0 -- -- 26
2017-07-27 16:00:00 33.3 34 Sur 45 Sudeste 0 -- -- 29
2017-07-27 15:00:00 33.4 31 Sur 40 Sur 0 -- -- 30
2017-07-27 14:00:00 33 25 Sur 40 Sur 0 -- -- 30
2017-07-27 13:00:00 30.1 30 Sur 43 Sur 0 -- -- 38
2017-07-27 12:00:00 28 28 Sur 36 Sur 0 -- -- 44
2017-07-27 11:00:00 25.8 10 Sur 18 Sur 0 -- -- 44
2017-07-27 10:00:00 25.2 3 Nordeste 9 Nordeste 0 -- -- 42
2017-07-27 09:00:00 21.6 5 Norte 10 Norte 0 -- -- 52
2017-07-27 08:00:00 17.7 2 Noroeste 9 Norte 0 -- -- 66
2017-07-27 07:00:00 13.9 6 Norte 8 Nordeste 0 -- -- 86
2017-07-27 06:00:00 14.2 6 Norte 8 Nordeste 0 -- -- 82
2017-07-27 05:00:00 15.2 4 Norte 5 Norte 0 -- -- 79
2017-07-27 04:00:00 15.7 4 Nordeste 7 Nordeste 0 -- -- 77
2017-07-27 03:00:00 17.2 3 Nordeste 13 Sudeste 0 -- -- 69
2017-07-27 02:00:00 18.5 5 Sur 15 Sur 0 -- -- 66
2017-07-27 01:00:00 19.4 2 Nordeste 6 Nordeste 0 -- -- 58
2017-07-27 00:00:00 20.7 6 Sur 12 Sur 0 -- -- 54
2017-07-26 23:00:00 22.3 4 Sur 23 Sur 0 -- -- 48
2017-07-26 22:00:00 23.9 20 Sur 31 Sur 0 -- -- 43
2017-07-26 21:00:00 25 25 Sur 39 Sur 0 -- -- 42
2017-07-26 20:00:00 26.4 29 Sudeste 41 Sur 0 -- -- 39
2017-07-26 19:00:00 27.6 33 Sur 44 Sur 0 -- -- 38
2017-07-26 18:00:00 28.1 29 Sur 45 Sur 0 -- -- 38
2017-07-26 17:00:00 28.2 33 Sur 49 Sur 0 -- -- 38
2017-07-26 16:00:00 28.4 31 Sur 45 Sur 0 -- -- 37
2017-07-26 15:00:00 27.7 33 Sudeste 43 Sur 0 -- -- 37
2017-07-26 14:00:00 26.7 32 Sur 46 Sur 0 -- -- 39
2017-07-26 13:00:00 24.8 36 Sur 46 Sur 0 -- -- 43
2017-07-26 12:00:00 23.1 34 Sur 41 Sur 0 -- -- 49
2017-07-26 11:00:00 21.5 20 Sur 26 Sur 0 -- -- 52
2017-07-26 10:00:00 20 3 Sur 7 Norte 0 -- -- 47
2017-07-26 09:00:00 17.8 3 Norte 7 Norte 0 -- -- 58
2017-07-26 08:00:00 14.6 5 Norte 6 Norte 0 -- -- 68
2017-07-26 07:00:00 12.7 3 Sur 8 Sur 0 -- -- 83
2017-07-26 06:00:00 13.5 3 Sur 15 Sur 0 -- -- 79
2017-07-26 05:00:00 14.7 15 Sur 27 Sur 0 -- -- 74
2017-07-26 04:00:00 15.7 25 Sur 31 Sur 0 -- -- 71
2017-07-26 03:00:00 16.8 24 Sur 30 Sur 0 -- -- 66
2017-07-26 02:00:00 17.7 11 Sur 16 Sur 0 -- -- 64
2017-07-26 01:00:00 18.9 11 Sur 32 Sur 0 -- -- 60
2017-07-26 00:00:00 20.8 6 Sudeste 20 Nordeste 0 -- -- 61
2017-07-25 23:00:00 21.7 13 Nordeste 21 Nordeste 0 -- -- 39
2017-07-25 22:00:00 23.3 7 Sudeste 22 Sudeste 0 -- -- 39
2017-07-25 21:00:00 24.6 14 Sudeste 25 Sur 0 -- -- 37
2017-07-25 20:00:00 26.8 12 Sur 28 Sur 0 -- -- 31
2017-07-25 19:00:00 28.7 20 Sudeste 32 Sur 0 -- -- 31
2017-07-25 18:00:00 25.8 21 Sur 35 Sur 0 -- -- 36
2017-07-25 17:00:00 25.8 23 Sur 40 Sudeste 0 -- -- 38
2017-07-25 16:00:00 29 27 Sudeste 42 Sur 0 -- -- 34
2017-07-25 15:00:00 28.4 30 Sudeste 46 Sur 0 -- -- 34
2017-07-25 14:00:00 26.9 31 Sur 45 Sur 0 -- -- 38
2017-07-25 13:00:00 27.7 22 Sur 33 Sur 0 -- -- 37
2017-07-25 12:00:00 25.8 17 Sur 26 Sur 0 -- -- 38
2017-07-25 11:00:00 26.8 10 Nordeste 35 Norte 0 -- -- 29
2017-07-25 10:00:00 24.2 18 Norte 32 Nordeste 0 -- -- 32
2017-07-25 09:00:00 22.4 15 Norte 24 Norte 0 -- -- 37
2017-07-25 08:00:00 18.2 7 Nordeste 15 Nordeste 0 -- -- 50
2017-07-25 07:00:00 12.7 8 Norte 15 Nordeste 0 -- -- 65
2017-07-25 06:00:00 14.7 4 Sur 19 Sur 0 -- -- 78
2017-07-25 05:00:00 16.2 11 Sur 18 Norte 0 -- -- 71
2017-07-25 04:00:00 17.5 8 Norte 27 Norte 0 -- -- 47
2017-07-25 03:00:00 19.1 15 Norte 31 Nordeste 0 -- -- 43
2017-07-25 02:00:00 20 18 Norte 40 Norte 0 -- -- 42
2017-07-25 01:00:00 20.5 18 Norte 44 Nordeste 0 -- -- 42
2017-07-25 00:00:00 21.8 28 Nordeste 49 Nordeste 0 -- -- 41
2017-07-24 23:00:00 22.6 23 Nordeste 49 Nordeste 0 -- -- 39
2017-07-24 22:00:00 23.5 24 Nordeste 44 Nordeste 0 -- -- 37
2017-07-24 21:00:00 24.8 22 Nordeste 46 Nordeste 0 -- -- 36
2017-07-24 20:00:00 27.6 18 Nordeste 35 Nordeste 0 -- -- 29
2017-07-24 19:00:00 29.8 21 Norte 35 Norte 0 -- -- 26
2017-07-24 18:00:00 30.5 15 Sur 28 Sur 0 -- -- 34
2017-07-24 17:00:00 31.2 17 Sur 28 Sudeste 0 -- -- 32
2017-07-24 16:00:00 29.9 12 Sudeste 33 Sur 0 -- -- 36
2017-07-24 15:00:00 27.8 26 Sur 34 Sur 0 -- -- 43
2017-07-24 14:00:00 29.8 18 Sur 36 Sur 0 -- -- 41
2017-07-24 13:00:00 26.5 25 Sur 42 Sur 0 -- -- 50
2017-07-24 12:00:00 24.7 32 Sur 42 Sur 0 -- -- 55
2017-07-24 11:00:00 22.7 31 Sur 39 Sur 0 -- -- 66
2017-07-24 10:00:00 20.7 23 Sur 30 Sur 0 -- -- 74
2017-07-24 09:00:00 19.6 13 Sur 18 Sur 0 -- -- 80
2017-07-24 08:00:00 18.4 5 Sur 12 Sur 0 -- -- 86
2017-07-24 07:00:00 15.8 0 Calma 5 Nordeste 0 -- -- 92
2017-07-24 06:00:00 16.2 0 Calma 6 Norte 0 -- -- 89
2017-07-24 05:00:00 16.7 6 Norte 9 Norte 0 -- -- 88
2017-07-24 04:00:00 17.7 3 Norte 9 Nordeste 0 -- -- 85
2017-07-24 03:00:00 19.6 4 Sur 32 Sur 0 -- -- 80
2017-07-24 02:00:00 20.4 19 Sur 33 Sudeste 0 -- -- 78
2017-07-24 01:00:00 20.8 26 Sur 43 Sur 0 -- -- 78
2017-07-24 00:00:00 20.9 30 Sur 41 Sur 0 -- -- 77
2017-07-23 23:00:00 21.8 31 Sur 42 Sur 0 -- -- 74
2017-07-23 22:00:00 22 19 Sur 38 Sur 0 -- -- 73
2017-07-23 21:00:00 23.1 29 Sur 50 Sur 0 -- -- 71
2017-07-23 20:00:00 24.8 30 Sur 37 Sur 0 -- -- 65
2017-07-23 19:00:00 26.1 20 Sur 35 Sudeste 0 -- -- 56
2017-07-23 18:00:00 27.5 21 Sur 41 Sudeste 0 -- -- 52
2017-07-23 17:00:00 29.4 27 Sudeste 43 Sudeste 0 -- -- 49
2017-07-23 16:00:00 28.9 28 Sudeste 43 Sur 0 -- -- 49
2017-07-23 15:00:00 29.5 30 Sur 41 Sur 0 -- -- 49
2017-07-23 14:00:00 29.7 28 Sur 42 Sur 0 -- -- 48
2017-07-23 13:00:00 28.8 29 Sur 41 Sur 0 -- -- 53
2017-07-23 12:00:00 26.9 29 Sur 38 Sur 0 -- -- 55
2017-07-23 11:00:00 26.7 25 Sur 34 Sur 0 -- -- 57
2017-07-23 10:00:00 25.4 6 Norte 12 Nordeste 0 -- -- 63
2017-07-23 09:00:00 21 3 Nordeste 6 Norte 0 -- -- 79
2017-07-23 08:00:00 18.5 3 Nordeste 4 Norte 0 -- -- 90
2017-07-23 07:00:00 17.9 4 Norte 6 Nordeste 0 -- -- 93
2017-07-23 06:00:00 18.1 2 Nordeste 4 Sudeste 0 -- -- 92
2017-07-23 05:00:00 18.9 0 Calma 5 Nordeste 0 -- -- 88
2017-07-23 04:00:00 19 4 Nordeste 7 Nordeste 0 -- -- 88
2017-07-23 03:00:00 20 4 Nordeste 9 Nordeste 0 -- -- 84
2017-07-23 02:00:00 21.1 2 Sudeste 17 Sur 0 -- -- 81
2017-07-23 01:00:00 22.3 9 Sur 18 Sudoeste 0 -- -- 75
2017-07-23 00:00:00 24.1 9 Sudoeste 35 Sur 0 -- -- 67
2017-07-22 23:00:00 24.7 21 Sudeste 38 Sur 0 -- -- 66
2017-07-22 22:00:00 26 18 Sur 32 Sur 0 -- -- 53
2017-07-22 21:00:00 27.6 17 Sur 25 Sur 0 -- -- 40
2017-07-22 20:00:00 28.7 17 Sur 31 Sur 0 -- -- 37
2017-07-22 19:00:00 30.5 19 Sur 32 Sur 0 -- -- 35
2017-07-22 18:00:00 31.6 15 Sur 35 Sur 0 -- -- 34
2017-07-22 17:00:00 30.9 14 Sur 37 Sur 0 -- -- 36
2017-07-22 16:00:00 31.4 23 Sur 43 Sur 0 -- -- 37
2017-07-22 15:00:00 31.5 19 Sudeste 42 Sur 0 -- -- 38
2017-07-22 14:00:00 29.5 31 Sur 43 Sudeste 0 -- -- 44
2017-07-22 13:00:00 28.8 26 Sur 35 Sur 0 -- -- 47
2017-07-22 12:00:00 27.9 18 Sur 26 Sur 0 -- -- 49
2017-07-22 11:00:00 26.1 10 Sudeste 15 Sudeste 0 -- -- 54
2017-07-22 10:00:00 23.6 5 Nordeste 9 Nordeste 0 -- -- 60
2017-07-22 09:00:00 20.6 4 Norte 8 Norte 0 -- -- 73
2017-07-22 08:00:00 18.6 3 Norte 7 Nordeste 0 -- -- 87
2017-07-22 07:00:00 15.6 4 Nordeste 7 Nordeste 0 -- -- 97
2017-07-22 06:00:00 15.7 8 Nordeste 10 Nordeste 0 -- -- 96
2017-07-22 05:00:00 16.5 6 Nordeste 7 Nordeste 0 -- -- 93
2017-07-22 04:00:00 16.7 5 Norte 8 Norte 0 -- -- 92
2017-07-22 03:00:00 18.4 2 Nordeste 7 Nordeste 0 -- -- 85
2017-07-22 02:00:00 19 4 Nordeste 6 Nordeste 0 -- -- 84
2017-07-22 01:00:00 20.3 4 Nordeste 12 Sudoeste 0 -- -- 77
2017-07-22 00:00:00 22.2 10 Sudoeste 21 Sur 0 -- -- 70
2017-07-21 23:00:00 21.9 10 Sur 15 Sur 0 -- -- 68
2017-07-21 22:00:00 22.8 5 Sur 21 Sur 0 -- -- 62
2017-07-21 21:00:00 24.2 12 Sur 24 Sur 0 -- -- 54
2017-07-21 20:00:00 25.4 12 Sur 28 Sudeste 0 -- -- 50
2017-07-21 19:00:00 27.2 17 Sur 30 Sur 0 -- -- 47
2017-07-21 18:00:00 26.9 15 Sur 26 Sur 0 -- -- 48
2017-07-21 17:00:00 27.1 16 Sur 25 Sudeste 0 -- -- 47
2017-07-21 16:00:00 26.6 13 Sur 23 Sur 0 -- -- 50
2017-07-21 15:00:00 28 17 Sur 31 Sur 0 -- -- 48
2017-07-21 14:00:00 26.5 6 Sur 14 Norte 0 -- -- 47
2017-07-21 13:00:00 25 14 Norte 35 Nordeste 0 -- -- 58
2017-07-21 12:00:00 19.7 18 Nordeste 30 Norte 0.2 -- -- 94
2017-07-21 11:00:00 17.8 9 Norte 22 Sur 1.8 -- -- 96
2017-07-21 10:00:00 18 7 Sur 11 Sur 2.4 -- -- 92
2017-07-21 09:00:00 18.7 3 Sur 10 Oeste 0.2 -- -- 88
2017-07-21 08:00:00 20.2 0 Calma 10 Sur 0 -- -- 77
2017-07-21 07:00:00 18.9 3 Sur 14 Sur 0 -- -- 78
2017-07-21 06:00:00 19.3 9 Sur 15 Sur 0 -- -- 76
2017-07-21 05:00:00 20 0 Calma 8 Sur 0 -- -- 71
2017-07-21 04:00:00 20.6 3 Nordeste 10 Norte 0 -- -- 68
2017-07-21 03:00:00 21.3 2 Noroeste 24 Sur 0 -- -- 66
2017-07-21 02:00:00 21.7 19 Sur 31 Sur 0 -- -- 65
2017-07-21 01:00:00 21.9 22 Sur 32 Sur 0 -- -- 63
2017-07-21 00:00:00 22.2 19 Sur 35 Sudeste 0 -- -- 62
2017-07-20 23:00:00 23.3 17 Sudeste 28 Sur 0 -- -- 59
2017-07-20 22:00:00 24.3 16 Sur 42 Sur 0 -- -- 57
2017-07-20 21:00:00 26.2 20 Sur 40 Sur 0 -- -- 52
2017-07-20 20:00:00 27.8 14 Sur 31 Sur 0 -- -- 45
2017-07-20 19:00:00 29 22 Sur 38 Sur 0 -- -- 43
2017-07-20 18:00:00 29.6 22 Sudoeste 44 Sur 0 -- -- 42
2017-07-20 17:00:00 31.1 25 Sur 42 Sudeste 0 -- -- 40
2017-07-20 16:00:00 31.6 26 Sur 40 Sur 0 -- -- 39
2017-07-20 15:00:00 31.7 23 Sur 38 Sur 0 -- -- 37
2017-07-20 14:00:00 30.8 23 Sur 39 Sur 0 -- -- 39
2017-07-20 13:00:00 30.9 19 Sur 37 Sur 0 -- -- 39
2017-07-20 12:00:00 28.3 23 Sur 36 Sur 0 -- -- 44
2017-07-20 11:00:00 27 20 Sur 27 Sur 0 -- -- 47
2017-07-20 10:00:00 24.8 15 Sur 21 Sur 0 -- -- 47
2017-07-20 09:00:00 24.7 2 Nordeste 8 Nordeste 0 -- -- 46
2017-07-20 08:00:00 19.1 4 Norte 8 Nordeste 0 -- -- 63
2017-07-20 07:00:00 16.4 5 Nordeste 9 Norte 0 -- -- 71
2017-07-20 06:00:00 17 7 Nordeste 10 Nordeste 0 -- -- 67
2017-07-20 05:00:00 17.9 5 Norte 8 Nordeste 0 -- -- 59
2017-07-20 04:00:00 19.4 2 Este 10 Nordeste 0 -- -- 52
2017-07-20 03:00:00 21 2 Norte 36 Sur 0 -- -- 52
2017-07-20 02:00:00 21.2 4 Nordeste 8 Nordeste 0 -- -- 53
2017-07-20 01:00:00 23.2 3 Sur 27 Sur 0 -- -- 49
2017-07-20 00:00:00 24.3 20 Sur 38 Sur 0 -- -- 46
2017-07-19 23:00:00 25.1 17 Sur 32 Sur 0 -- -- 47
2017-07-19 22:00:00 26.2 22 Sur 33 Sur 0 -- -- 42
2017-07-19 21:00:00 27.4 17 Sur 37 Sur 0 -- -- 39
2017-07-19 20:00:00 28.6 12 Sur 42 Sur 0 -- -- 31
2017-07-19 19:00:00 30.4 16 Sur 31 Sudeste 0 -- -- 29
2017-07-19 18:00:00 30.8 18 Sudeste 46 Sudoeste 0 -- -- 27
2017-07-19 17:00:00 31.9 22 Sudoeste 48 Sur 0 -- -- 26
2017-07-19 16:00:00 33.5 15 Sur 48 Sudeste 0 -- -- 26
2017-07-19 15:00:00 34.1 22 Sur 40 Sudeste 0 -- -- 24
2017-07-19 14:00:00 33.4 17 Sur 40 Sudeste 0 -- -- 25
2017-07-19 13:00:00 31.8 3 Noroeste 22 Nordeste 0 -- -- 31
2017-07-19 12:00:00 28.9 14 Nordeste 30 Nordeste 0 -- -- 37
2017-07-19 11:00:00 26.7 12 Nordeste 19 Nordeste 0 -- -- 44
2017-07-19 10:00:00 26.5 8 Nordeste 21 Nordeste 0 -- -- 46
2017-07-19 09:00:00 23.4 16 Norte 26 Norte 0 -- -- 50
2017-07-19 08:00:00 20.7 12 Norte 17 Norte 0 -- -- 60
2017-07-19 07:00:00 19.4 10 Noroeste 16 Nordeste 0 -- -- 62
2017-07-19 06:00:00 19.8 4 Sudoeste 15 Sur 0 -- -- 60
2017-07-19 05:00:00 21.3 11 Sur 35 Sur 0 -- -- 55
2017-07-19 04:00:00 22.6 29 Sur 36 Sur 0 -- -- 51
2017-07-19 03:00:00 23.3 17 Noroeste 28 Oeste 0 -- -- 49
2017-07-19 02:00:00 22.6 13 Norte 26 Norte 0 -- -- 53
2017-07-19 01:00:00 23.4 7 Sur 30 Sur 0 -- -- 50
2017-07-19 00:00:00 24 18 Sur 38 Sur 0 -- -- 49